sensor_id;sensor_type;location;lat;lon;timestamp;pressure;altitude;pressure_sealevel;temperature;humidity
55271;BME280;41132;47.162;9.470;2023-05-12T00:01:17;96163.41;;;11.18;100.00
55271;BME280;41132;47.162;9.470;2023-05-12T00:03:44;96133.56;;;11.03;100.00
55271;BME280;41132;47.162;9.470;2023-05-12T00:06:09;96146.03;;;11.17;100.00
55271;BME280;41132;47.162;9.470;2023-05-12T00:08:35;96160.94;;;11.25;100.00
55271;BME280;41132;47.162;9.470;2023-05-12T00:11:01;96135.03;;;11.05;100.00
55271;BME280;41132;47.162;9.470;2023-05-12T00:13:26;96150.13;;;11.20;100.00
55271;BME280;41132;47.162;9.470;2023-05-12T00:15:53;96156.63;;;11.32;100.00
55271;BME280;41132;47.162;9.470;2023-05-12T00:18:21;96168.81;;;11.25;100.00
55271;BME280;41132;47.162;9.470;2023-05-12T00:20:46;96168.00;;;11.24;100.00
55271;BME280;41132;47.162;9.470;2023-05-12T00:23:12;96167.00;;;11.25;100.00
55271;BME280;41132;47.162;9.470;2023-05-12T00:25:38;96162.25;;;11.21;100.00
55271;BME280;41132;47.162;9.470;2023-05-12T00:28:03;96143.56;;;11.16;100.00
55271;BME280;41132;47.162;9.470;2023-05-12T00:30:29;96138.16;;;11.09;100.00
55271;BME280;41132;47.162;9.470;2023-05-12T00:32:54;96157.16;;;11.27;100.00
55271;BME280;41132;47.162;9.470;2023-05-12T00:35:20;96132.41;;;11.05;100.00
55271;BME280;41132;47.162;9.470;2023-05-12T00:37:45;96149.63;;;11.16;100.00
55271;BME280;41132;47.162;9.470;2023-05-12T00:40:11;96132.75;;;10.94;100.00
55271;BME280;41132;47.162;9.470;2023-05-12T00:42:36;96132.09;;;11.00;100.00
55271;BME280;41132;47.162;9.470;2023-05-12T00:45:02;96115.38;;;11.01;100.00
55271;BME280;41132;47.162;9.470;2023-05-12T00:47:29;96150.06;;;11.28;100.00
55271;BME280;41132;47.162;9.470;2023-05-12T00:49:54;96150.78;;;11.22;100.00
55271;BME280;41132;47.162;9.470;2023-05-12T00:52:20;96143.56;;;11.16;100.00
55271;BME280;41132;47.162;9.470;2023-05-12T00:54:46;96136.19;;;11.11;100.00
55271;BME280;41132;47.162;9.470;2023-05-12T00:57:12;96144.88;;;11.12;100.00
55271;BME280;41132;47.162;9.470;2023-05-12T00:59:37;96116.69;;;10.97;100.00
55271;BME280;41132;47.162;9.470;2023-05-12T01:02:03;96143.88;;;11.13;100.00
55271;BME280;41132;47.162;9.470;2023-05-12T01:04:28;96112.59;;;10.95;100.00
55271;BME280;41132;47.162;9.470;2023-05-12T01:06:58;96156.19;;;11.12;100.00
55271;BME280;41132;47.162;9.470;2023-05-12T01:09:24;96146.34;;;11.14;100.00
55271;BME280;41132;47.162;9.470;2023-05-12T01:11:50;96150.06;;;11.28;100.00
55271;BME280;41132;47.162;9.470;2023-05-12T01:14:15;96133.06;;;11.07;100.00
55271;BME280;41132;47.162;9.470;2023-05-12T01:16:50;96137.00;;;11.12;100.00
55271;BME280;41132;47.162;9.470;2023-05-12T01:19:37;96148.66;;;11.17;100.00
55271;BME280;41132;47.162;9.470;2023-05-12T01:22:10;96147.00;;;11.16;100.00
55271;BME280;41132;47.162;9.470;2023-05-12T01:25:26;96138.66;;;11.04;100.00
55271;BME280;41132;47.162;9.470;2023-05-12T01:27:26;96130.44;;;11.07;100.00
55271;BME280;41132;47.162;9.470;2023-05-12T01:29:55;96122.75;;;10.98;100.00
55271;BME280;41132;47.162;9.470;2023-05-12T01:32:22;96137.66;;;11.05;100.00
55271;BME280;41132;47.162;9.470;2023-05-12T01:34:47;96144.53;;;11.15;100.00
55271;BME280;41132;47.162;9.470;2023-05-12T01:37:14;96148.31;;;11.12;100.00
55271;BME280;41132;47.162;9.470;2023-05-12T01:39:40;96144.38;;;11.16;100.00
55271;BME280;41132;47.162;9.470;2023-05-12T01:42:05;96140.13;;;11.15;100.00
55271;BME280;41132;47.162;9.470;2023-05-12T01:44:31;96144.03;;;11.19;100.00
55271;BME280;41132;47.162;9.470;2023-05-12T01:46:56;96140.63;;;11.11;100.00
55271;BME280;41132;47.162;9.470;2023-05-12T01:49:22;96142.25;;;11.12;100.00
55271;BME280;41132;47.162;9.470;2023-05-12T01:51:47;96147.81;;;11.17;100.00
55271;BME280;41132;47.162;9.470;2023-05-12T01:54:12;96146.50;;;11.13;100.00
55271;BME280;41132;47.162;9.470;2023-05-12T01:56:38;96133.06;;;11.07;100.00
55271;BME280;41132;47.162;9.470;2023-05-12T01:59:03;96140.63;;;11.11;100.00
55271;BME280;41132;47.162;9.470;2023-05-12T02:01:29;96147.66;;;11.18;100.00
55271;BME280;41132;47.162;9.470;2023-05-12T02:03:56;96125.53;;;10.96;100.00
55271;BME280;41132;47.162;9.470;2023-05-12T02:06:21;96142.09;;;11.13;100.00
55271;BME280;41132;47.162;9.470;2023-05-12T02:08:47;96144.06;;;11.11;100.00
55271;BME280;41132;47.162;9.470;2023-05-12T02:11:14;96149.63;;;11.16;100.00
55271;BME280;41132;47.162;9.470;2023-05-12T02:13:40;96146.53;;;11.04;100.00
55271;BME280;41132;47.162;9.470;2023-05-12T02:16:06;96148.31;;;11.20;100.00
55271;BME280;41132;47.162;9.470;2023-05-12T02:18:31;96125.38;;;10.98;100.00
55271;BME280;41132;47.162;9.470;2023-05-12T02:20:57;96135.03;;;11.05;100.00
55271;BME280;41132;47.162;9.470;2023-05-12T02:23:22;96117.34;;;10.91;100.00
55271;BME280;41132;47.162;9.470;2023-05-12T02:25:48;96142.44;;;11.02;100.00
55271;BME280;41132;47.162;9.470;2023-05-12T02:28:13;96130.78;;;11.04;100.00
55271;BME280;41132;47.162;9.470;2023-05-12T02:30:46;96137.50;;;11.07;100.00
55271;BME280;41132;47.162;9.470;2023-05-12T02:33:15;96138.31;;;11.07;100.00
55271;BME280;41132;47.162;9.470;2023-05-12T02:35:41;96137.34;;;11.08;100.00
55271;BME280;41132;47.162;9.470;2023-05-12T02:38:06;96129.59;;;11.15;100.00
55271;BME280;41132;47.162;9.470;2023-05-12T02:40:31;96134.53;;;11.10;100.00
55271;BME280;41132;47.162;9.470;2023-05-12T02:42:57;96129.28;;;11.10;100.00
55271;BME280;41132;47.162;9.470;2023-05-12T02:45:22;96124.88;;;11.02;100.00
55271;BME280;41132;47.162;9.470;2023-05-12T02:47:48;96125.88;;;11.01;100.00
55271;BME280;41132;47.162;9.470;2023-05-12T02:50:13;96130.75;;;11.13;100.00
55271;BME280;41132;47.162;9.470;2023-05-12T02:52:39;96123.25;;;11.01;100.00
55271;BME280;41132;47.162;9.470;2023-05-12T02:55:04;96113.34;;;11.03;100.00
55271;BME280;41132;47.162;9.470;2023-05-12T02:57:30;96129.97;;;11.04;100.00
55271;BME280;41132;47.162;9.470;2023-05-12T03:00:02;96131.75;;;11.03;100.00
55271;BME280;41132;47.162;9.470;2023-05-12T03:02:34;96126.19;;;11.06;100.00
55271;BME280;41132;47.162;9.470;2023-05-12T03:05:01;96129.31;;;11.02;100.00
55271;BME280;41132;47.162;9.470;2023-05-12T03:07:26;96138.00;;;11.02;100.00
55271;BME280;41132;47.162;9.470;2023-05-12T03:09:52;96130.47;;;10.99;100.00
55271;BME280;41132;47.162;9.470;2023-05-12T03:12:17;96132.91;;;11.01;100.00
55271;BME280;41132;47.162;9.470;2023-05-12T03:14:43;96138.16;;;11.01;100.00
55271;BME280;41132;47.162;9.470;2023-05-12T03:17:08;96138.50;;;10.98;100.00
55271;BME280;41132;47.162;9.470;2023-05-12T03:19:34;96146.88;;;11.01;100.00
55271;BME280;41132;47.162;9.470;2023-05-12T03:22:00;96125.88;;;10.85;100.00
55271;BME280;41132;47.162;9.470;2023-05-12T03:24:26;96137.50;;;10.99;100.00
55271;BME280;41132;47.162;9.470;2023-05-12T03:26:51;96133.41;;;10.96;100.00
55271;BME280;41132;47.162;9.470;2023-05-12T03:29:16;96128.16;;;10.96;100.00
55271;BME280;41132;47.162;9.470;2023-05-12T03:31:42;96121.28;;;10.95;100.00
55271;BME280;41132;47.162;9.470;2023-05-12T03:34:07;96131.59;;;10.97;100.00
55271;BME280;41132;47.162;9.470;2023-05-12T03:36:32;96136.19;;;11.03;100.00
55271;BME280;41132;47.162;9.470;2023-05-12T03:38:58;96132.44;;;10.89;100.00
55271;BME280;41132;47.162;9.470;2023-05-12T03:41:23;96128.84;;;10.90;100.00
55271;BME280;41132;47.162;9.470;2023-05-12T03:43:49;96127.19;;;10.97;100.00
55271;BME280;41132;47.162;9.470;2023-05-12T03:46:14;96108.19;;;10.79;100.00
55271;BME280;41132;47.162;9.470;2023-05-12T03:48:39;96127.50;;;11.02;100.00
55271;BME280;41132;47.162;9.470;2023-05-12T03:51:05;96125.69;;;11.03;100.00
55271;BME280;41132;47.162;9.470;2023-05-12T03:53:30;96118.66;;;10.87;100.00
55271;BME280;41132;47.162;9.470;2023-05-12T03:55:56;96125.03;;;11.01;100.00
55271;BME280;41132;47.162;9.470;2023-05-12T03:58:22;96121.59;;;11.00;100.00
55271;BME280;41132;47.162;9.470;2023-05-12T04:00:48;96105.69;;;10.94;100.00
55271;BME280;41132;47.162;9.470;2023-05-12T04:03:14;96107.19;;;10.88;100.00
55271;BME280;41132;47.162;9.470;2023-05-12T04:05:40;96115.88;;;10.89;100.00
55271;BME280;41132;47.162;9.470;2023-05-12T04:08:07;96109.47;;;10.91;100.00
55271;BME280;41132;47.162;9.470;2023-05-12T04:10:37;96103.88;;;10.94;100.00
55271;BME280;41132;47.162;9.470;2023-05-12T04:13:02;96114.88;;;10.98;100.00
55271;BME280;41132;47.162;9.470;2023-05-12T04:15:28;96119.78;;;11.01;100.00
55271;BME280;41132;47.162;9.470;2023-05-12T04:17:53;96105.88;;;10.84;100.00
55271;BME280;41132;47.162;9.470;2023-05-12T04:20:18;96113.09;;;10.90;100.00
55271;BME280;41132;47.162;9.470;2023-05-12T04:22:44;96115.69;;;10.98;100.00
55271;BME280;41132;47.162;9.470;2023-05-12T04:25:09;96120.94;;;10.98;100.00
55271;BME280;41132;47.162;9.470;2023-05-12T04:27:34;96096.34;;;10.83;100.00
55271;BME280;41132;47.162;9.470;2023-05-12T04:30:00;96112.25;;;10.98;100.00
55271;BME280;41132;47.162;9.470;2023-05-12T04:32:25;96127.50;;;11.02;100.00
55271;BME280;41132;47.162;9.470;2023-05-12T04:34:51;96103.41;;;10.82;100.00
55271;BME280;41132;47.162;9.470;2023-05-12T04:37:19;96109.81;;;10.88;100.00
55271;BME280;41132;47.162;9.470;2023-05-12T04:39:46;96138.19;;;10.93;100.00
55271;BME280;41132;47.162;9.470;2023-05-12T04:42:12;96133.41;;;11.04;100.00
55271;BME280;41132;47.162;9.470;2023-05-12T04:44:37;96129.63;;;10.99;100.00
55271;BME280;41132;47.162;9.470;2023-05-12T04:47:03;96128.81;;;10.98;100.00
55271;BME280;41132;47.162;9.470;2023-05-12T04:49:28;96138.16;;;11.01;100.00
55271;BME280;41132;47.162;9.470;2023-05-12T04:51:54;96130.78;;;10.96;100.00
55271;BME280;41132;47.162;9.470;2023-05-12T04:54:19;96134.38;;;11.03;100.00
55271;BME280;41132;47.162;9.470;2023-05-12T04:56:44;96135.03;;;11.05;100.00
55271;BME280;41132;47.162;9.470;2023-05-12T04:59:10;96128.81;;;11.06;100.00
55271;BME280;41132;47.162;9.470;2023-05-12T05:01:36;96128.16;;;10.96;100.00
55271;BME280;41132;47.162;9.470;2023-05-12T05:04:01;96147.00;;;11.16;100.00
55271;BME280;41132;47.162;9.470;2023-05-12T05:06:27;96123.41;;;10.92;100.00
55271;BME280;41132;47.162;9.470;2023-05-12T05:08:52;96154.38;;;11.13;100.00
55271;BME280;41132;47.162;9.470;2023-05-12T05:11:19;96142.91;;;11.14;100.00
55271;BME280;41132;47.162;9.470;2023-05-12T05:13:46;96144.88;;;11.20;100.00
55271;BME280;41132;47.162;9.470;2023-05-12T05:16:11;96128.81;;;11.06;100.00
55271;BME280;41132;47.162;9.470;2023-05-12T05:18:37;96130.56;;;11.14;100.00
55271;BME280;41132;47.162;9.470;2023-05-12T05:21:02;96146.28;;;11.31;100.00
55271;BME280;41132;47.162;9.470;2023-05-12T05:23:28;96143.50;;;11.32;100.00
55271;BME280;41132;47.162;9.470;2023-05-12T05:25:53;96154.81;;;11.41;100.00
55271;BME280;41132;47.162;9.470;2023-05-12T05:28:18;96151.69;;;11.45;100.00
55271;BME280;41132;47.162;9.470;2023-05-12T05:30:44;96148.75;;;11.40;100.00
55271;BME280;41132;47.162;9.470;2023-05-12T05:33:09;96150.69;;;11.46;100.00
55271;BME280;41132;47.162;9.470;2023-05-12T05:35:36;96142.28;;;11.51;100.00
55271;BME280;41132;47.162;9.470;2023-05-12T05:38:02;96130.16;;;11.42;100.00
55271;BME280;41132;47.162;9.470;2023-05-12T05:40:27;96137.53;;;11.46;100.00
55271;BME280;41132;47.162;9.470;2023-05-12T05:42:53;96155.56;;;11.58;100.00
55271;BME280;41132;47.162;9.470;2023-05-12T05:45:19;96146.41;;;11.54;100.00
55271;BME280;41132;47.162;9.470;2023-05-12T05:47:44;96161.47;;;11.60;100.00
55271;BME280;41132;47.162;9.470;2023-05-12T05:50:11;96175.91;;;11.64;100.00
55271;BME280;41132;47.162;9.470;2023-05-12T05:52:36;96161.16;;;11.55;100.00
55271;BME280;41132;47.162;9.470;2023-05-12T05:55:01;96161.81;;;11.57;100.00
55271;BME280;41132;47.162;9.470;2023-05-12T05:57:27;96165.25;;;11.57;100.00
55271;BME280;41132;47.162;9.470;2023-05-12T05:59:52;96159.50;;;11.62;100.00
55271;BME280;41132;47.162;9.470;2023-05-12T06:02:18;96163.44;;;11.58;100.00
55271;BME280;41132;47.162;9.470;2023-05-12T06:04:47;96161.44;;;11.68;100.00
55271;BME280;41132;47.162;9.470;2023-05-12T06:07:13;96151.59;;;11.62;100.00
55271;BME280;41132;47.162;9.470;2023-05-12T06:09:38;96166.84;;;11.75;100.00
55271;BME280;41132;47.162;9.470;2023-05-12T06:12:03;96157.50;;;11.72;100.00
55271;BME280;41132;47.162;9.470;2023-05-12T06:14:29;96155.13;;;11.85;100.00
55271;BME280;41132;47.162;9.470;2023-05-12T06:16:54;96152.19;;;11.88;100.00
55271;BME280;41132;47.162;9.470;2023-05-12T06:19:20;96171.19;;;11.99;100.00
55271;BME280;41132;47.162;9.470;2023-05-12T06:21:45;96174.66;;;11.99;100.00
55271;BME280;41132;47.162;9.470;2023-05-12T06:24:11;96169.22;;;12.01;100.00
55271;BME280;41132;47.162;9.470;2023-05-12T06:26:36;96173.00;;;11.98;100.00
55271;BME280;41132;47.162;9.470;2023-05-12T06:29:05;96172.09;;;12.14;100.00
55271;BME280;41132;47.162;9.470;2023-05-12T06:31:30;96169.09;;;12.17;100.00
55271;BME280;41132;47.162;9.470;2023-05-12T06:33:56;96169.31;;;12.16;100.00
55271;BME280;41132;47.162;9.470;2023-05-12T06:36:21;96174.06;;;12.12;100.00
55271;BME280;41132;47.162;9.470;2023-05-12T06:38:46;96173.09;;;12.13;100.00
55271;BME280;41132;47.162;9.470;2023-05-12T06:41:12;96181.72;;;12.30;100.00
55271;BME280;41132;47.162;9.470;2023-05-12T06:43:37;96172.59;;;12.41;100.00
55271;BME280;41132;47.162;9.470;2023-05-12T06:46:03;96176.34;;;12.46;100.00
55271;BME280;41132;47.162;9.470;2023-05-12T06:48:28;96149.84;;;12.48;100.00
55271;BME280;41132;47.162;9.470;2023-05-12T06:50:53;96163.28;;;12.76;100.00
55271;BME280;41132;47.162;9.470;2023-05-12T06:53:19;96155.38;;;12.76;100.00
55271;BME280;41132;47.162;9.470;2023-05-12T06:55:44;96165.19;;;13.20;100.00
55271;BME280;41132;47.162;9.470;2023-05-12T06:58:11;96151.66;;;13.23;100.00
55271;BME280;41132;47.162;9.470;2023-05-12T07:00:37;96161.84;;;13.71;100.00
55271;BME280;41132;47.162;9.470;2023-05-12T07:03:02;96153.78;;;14.45;100.00
55271;BME280;41132;47.162;9.470;2023-05-12T07:05:28;96158.22;;;15.44;100.00
55271;BME280;41132;47.162;9.470;2023-05-12T07:07:53;96149.63;;;16.12;100.00
55271;BME280;41132;47.162;9.470;2023-05-12T07:10:19;96161.84;;;16.87;100.00
55271;BME280;41132;47.162;9.470;2023-05-12T07:12:45;96155.31;;;16.08;96.33
55271;BME280;41132;47.162;9.470;2023-05-12T07:15:10;96159.13;;;16.67;95.80
55271;BME280;41132;47.162;9.470;2023-05-12T07:17:36;96161.81;;;17.07;93.82
55271;BME280;41132;47.162;9.470;2023-05-12T07:20:01;96156.31;;;17.16;87.66
55271;BME280;41132;47.162;9.470;2023-05-12T07:22:29;96151.38;;;16.73;90.53
55271;BME280;41132;47.162;9.470;2023-05-12T07:24:56;96148.88;;;16.31;87.84
55271;BME280;41132;47.162;9.470;2023-05-12T07:27:21;96153.56;;;15.74;93.80
55271;BME280;41132;47.162;9.470;2023-05-12T07:29:47;96153.47;;;15.61;97.85
55271;BME280;41132;47.162;9.470;2023-05-12T07:32:12;96158.34;;;15.01;96.85
55271;BME280;41132;47.162;9.470;2023-05-12T07:34:38;96149.19;;;14.75;96.63
55271;BME280;41132;47.162;9.470;2023-05-12T07:37:03;96146.06;;;14.65;99.85
55271;BME280;41132;47.162;9.470;2023-05-12T07:39:30;96156.25;;;14.47;98.47
55271;BME280;41132;47.162;9.470;2023-05-12T07:41:57;96147.47;;;14.46;100.00
55271;BME280;41132;47.162;9.470;2023-05-12T07:44:22;96139.97;;;14.28;100.00
55271;BME280;41132;47.162;9.470;2023-05-12T07:46:48;96151.09;;;14.24;100.00
55271;BME280;41132;47.162;9.470;2023-05-12T07:49:13;96126.03;;;14.13;100.00
55271;BME280;41132;47.162;9.470;2023-05-12T07:51:38;96135.56;;;14.14;100.00
55271;BME280;41132;47.162;9.470;2023-05-12T07:54:04;96144.13;;;14.16;100.00
55271;BME280;41132;47.162;9.470;2023-05-12T07:56:31;96127.66;;;14.14;100.00
55271;BME280;41132;47.162;9.470;2023-05-12T07:58:57;96153.66;;;14.17;100.00
55271;BME280;41132;47.162;9.470;2023-05-12T08:01:22;96114.81;;;13.89;100.00
55271;BME280;41132;47.162;9.470;2023-05-12T08:03:48;96134.53;;;14.08;100.00
55271;BME280;41132;47.162;9.470;2023-05-12T08:06:15;96126.28;;;14.18;100.00
55271;BME280;41132;47.162;9.470;2023-05-12T08:08:41;96140.13;;;14.20;100.00
55271;BME280;41132;47.162;9.470;2023-05-12T08:11:06;96139.06;;;14.36;100.00
55271;BME280;41132;47.162;9.470;2023-05-12T08:13:32;96121.06;;;14.61;99.79
55271;BME280;41132;47.162;9.470;2023-05-12T08:15:57;96142.06;;;14.97;100.00
55271;BME280;41132;47.162;9.470;2023-05-12T08:18:22;96147.56;;;15.24;94.58
55271;BME280;41132;47.162;9.470;2023-05-12T08:20:48;96120.69;;;15.20;91.89
55271;BME280;41132;47.162;9.470;2023-05-12T08:23:15;96130.63;;;14.90;94.94
55271;BME280;41132;47.162;9.470;2023-05-12T08:25:41;96140.81;;;14.93;98.85
55271;BME280;41132;47.162;9.470;2023-05-12T08:28:09;96132.34;;;15.04;98.96
55271;BME280;41132;47.162;9.470;2023-05-12T08:30:34;96141.50;;;15.02;95.28
55271;BME280;41132;47.162;9.470;2023-05-12T08:33:00;96139.56;;;14.89;95.06
55271;BME280;41132;47.162;9.470;2023-05-12T08:35:25;96137.19;;;15.01;100.00
55271;BME280;41132;47.162;9.470;2023-05-12T08:37:51;96138.44;;;15.05;100.00
55271;BME280;41132;47.162;9.470;2023-05-12T08:40:20;96140.47;;;15.03;100.00
55271;BME280;41132;47.162;9.470;2023-05-12T08:43:36;96135.66;;;14.85;100.00
55271;BME280;41132;47.162;9.470;2023-05-12T08:45:37;96137.75;;;14.68;94.85
55271;BME280;41132;47.162;9.470;2023-05-12T08:48:04;96142.81;;;14.63;97.04
55271;BME280;41132;47.162;9.470;2023-05-12T08:50:31;96138.28;;;14.85;97.83
55271;BME280;41132;47.162;9.470;2023-05-12T08:53:02;96134.84;;;14.85;100.00
55271;BME280;41132;47.162;9.470;2023-05-12T08:55:28;96139.72;;;15.09;100.00
55271;BME280;41132;47.162;9.470;2023-05-12T08:57:55;96131.38;;;15.12;95.80
55271;BME280;41132;47.162;9.470;2023-05-12T09:00:22;96126.81;;;15.28;96.58
55271;BME280;41132;47.162;9.470;2023-05-12T09:02:50;96109.72;;;15.58;95.36
55271;BME280;41132;47.162;9.470;2023-05-12T09:05:17;96104.78;;;15.55;91.00
55271;BME280;41132;47.162;9.470;2023-05-12T09:07:42;96123.91;;;15.85;95.50
55271;BME280;41132;47.162;9.470;2023-05-12T09:10:13;96114.75;;;15.88;93.29
55271;BME280;41132;47.162;9.470;2023-05-12T09:12:41;96116.97;;;15.91;90.63
55271;BME280;41132;47.162;9.470;2023-05-12T09:15:10;96121.91;;;15.94;88.59
55271;BME280;41132;47.162;9.470;2023-05-12T09:17:37;96116.16;;;15.91;87.79
55271;BME280;41132;47.162;9.470;2023-05-12T09:20:03;96116.19;;;15.97;87.86
55271;BME280;41132;47.162;9.470;2023-05-12T09:22:30;96115.00;;;16.06;88.86
55271;BME280;41132;47.162;9.470;2023-05-12T09:24:58;96126.47;;;16.27;89.92
55271;BME280;41132;47.162;9.470;2023-05-12T09:27:27;96122.94;;;16.06;86.90
55271;BME280;41132;47.162;9.470;2023-05-12T09:29:53;96133.25;;;15.88;85.72
55271;BME280;41132;47.162;9.470;2023-05-12T09:32:32;96125.34;;;15.95;90.63
55271;BME280;41132;47.162;9.470;2023-05-12T09:35:02;96132.34;;;16.16;91.70
55271;BME280;41132;47.162;9.470;2023-05-12T09:37:30;96110.06;;;15.90;88.05
55271;BME280;41132;47.162;9.470;2023-05-12T09:40:01;96121.50;;;15.97;88.43
55271;BME280;41132;47.162;9.470;2023-05-12T09:42:28;96120.88;;;16.02;86.96
55271;BME280;41132;47.162;9.470;2023-05-12T09:45:05;96123.13;;;16.05;89.24
55271;BME280;41132;47.162;9.470;2023-05-12T09:47:35;96107.28;;;16.18;92.55
55271;BME280;41132;47.162;9.470;2023-05-12T09:50:02;96127.97;;;16.69;90.04
55271;BME280;41132;47.162;9.470;2023-05-12T09:52:29;96104.06;;;16.36;79.47
55271;BME280;41132;47.162;9.470;2023-05-12T09:57:34;96115.50;;;16.70;80.29
55271;BME280;41132;47.162;9.470;2023-05-12T10:00:02;96113.47;;;16.52;77.94
55271;BME280;41132;47.162;9.470;2023-05-12T10:02:28;96119.78;;;16.71;82.12
55271;BME280;41132;47.162;9.470;2023-05-12T10:04:59;96108.97;;;16.59;80.06
55271;BME280;41132;47.162;9.470;2023-05-12T10:07:27;96104.72;;;16.52;82.39
55271;BME280;41132;47.162;9.470;2023-05-12T10:09:54;96113.53;;;15.91;75.97
55271;BME280;41132;47.162;9.470;2023-05-12T10:12:22;96119.53;;;16.26;79.61
55271;BME280;41132;47.162;9.470;2023-05-12T10:14:48;96105.91;;;16.29;81.15
55271;BME280;41132;47.162;9.470;2023-05-12T10:17:14;96112.63;;;16.38;80.63
55271;BME280;41132;47.162;9.470;2023-05-12T10:19:40;96113.47;;;16.79;77.97
55271;BME280;41132;47.162;9.470;2023-05-12T10:22:09;96104.91;;;17.17;79.28
55271;BME280;41132;47.162;9.470;2023-05-12T10:24:36;96114.22;;;17.52;81.18
55271;BME280;41132;47.162;9.470;2023-05-12T10:27:04;96106.09;;;17.34;81.83
55271;BME280;41132;47.162;9.470;2023-05-12T10:29:30;96097.56;;;17.19;78.16
55271;BME280;41132;47.162;9.470;2023-05-12T10:31:57;96112.28;;;17.08;78.54
55271;BME280;41132;47.162;9.470;2023-05-12T10:34:36;96106.56;;;17.11;78.74
55271;BME280;41132;47.162;9.470;2023-05-12T10:37:05;96110.81;;;17.05;79.66
55271;BME280;41132;47.162;9.470;2023-05-12T10:39:33;96105.72;;;17.24;81.78
55271;BME280;41132;47.162;9.470;2023-05-12T10:42:00;96104.28;;;17.28;81.21
55271;BME280;41132;47.162;9.470;2023-05-12T10:44:27;96093.06;;;17.26;79.40
55271;BME280;41132;47.162;9.470;2023-05-12T10:46:57;96106.44;;;17.58;74.48
55271;BME280;41132;47.162;9.470;2023-05-12T10:49:44;96104.38;;;17.66;74.15
55271;BME280;41132;47.162;9.470;2023-05-12T10:52:18;96098.53;;;17.51;67.17
55271;BME280;41132;47.162;9.470;2023-05-12T10:54:43;96105.16;;;17.73;74.45
55271;BME280;41132;47.162;9.470;2023-05-12T10:57:13;96104.78;;;17.63;71.77
55271;BME280;41132;47.162;9.470;2023-05-12T10:59:50;96089.81;;;17.89;72.50
55271;BME280;41132;47.162;9.470;2023-05-12T11:02:22;96084.56;;;17.69;70.86
55271;BME280;41132;47.162;9.470;2023-05-12T11:04:52;96091.88;;;17.73;71.09
55271;BME280;41132;47.162;9.470;2023-05-12T11:07:23;96093.91;;;17.20;69.08
55271;BME280;41132;47.162;9.470;2023-05-12T11:09:50;96097.34;;;17.27;72.65
55271;BME280;41132;47.162;9.470;2023-05-12T11:12:16;96089.44;;;16.87;67.27
55271;BME280;41132;47.162;9.470;2023-05-12T11:14:43;96088.00;;;16.91;73.00
55271;BME280;41132;47.162;9.470;2023-05-12T11:17:09;96085.56;;;16.76;73.54
55271;BME280;41132;47.162;9.470;2023-05-12T11:19:35;96085.34;;;16.44;70.66
55271;BME280;41132;47.162;9.470;2023-05-12T11:22:05;96083.69;;;16.30;69.46
55271;BME280;41132;47.162;9.470;2023-05-12T11:24:34;96068.97;;;16.01;69.66
55271;BME280;41132;47.162;9.470;2023-05-12T11:27:00;96097.47;;;15.99;67.21
55271;BME280;41132;47.162;9.470;2023-05-12T11:29:26;96086.28;;;15.97;69.60
55271;BME280;41132;47.162;9.470;2023-05-12T11:31:52;96094.44;;;16.02;73.39
55271;BME280;41132;47.162;9.470;2023-05-12T11:34:25;96075.50;;;16.05;73.94
55271;BME280;41132;47.162;9.470;2023-05-12T11:36:52;96087.16;;;16.31;75.82
55271;BME280;41132;47.162;9.470;2023-05-12T11:39:19;96091.84;;;16.28;74.73
55271;BME280;41132;47.162;9.470;2023-05-12T11:41:46;96089.34;;;16.07;71.04
55271;BME280;41132;47.162;9.470;2023-05-12T11:44:15;96078.59;;;16.22;72.56
55271;BME280;41132;47.162;9.470;2023-05-12T11:46:55;96082.47;;;16.33;68.00
55271;BME280;41132;47.162;9.470;2023-05-12T11:49:21;96074.94;;;16.49;63.62
55271;BME280;41132;47.162;9.470;2023-05-12T11:51:46;96088.38;;;16.35;62.54
55271;BME280;41132;47.162;9.470;2023-05-12T11:54:13;96067.16;;;16.21;65.23
55271;BME280;41132;47.162;9.470;2023-05-12T11:56:46;96053.47;;;15.91;64.13
55271;BME280;41132;47.162;9.470;2023-05-12T11:59:11;96060.69;;;16.24;66.06
55271;BME280;41132;47.162;9.470;2023-05-12T12:01:43;96083.53;;;16.78;70.17
55271;BME280;41132;47.162;9.470;2023-05-12T12:04:10;96053.53;;;16.71;68.14
55271;BME280;41132;47.162;9.470;2023-05-12T12:06:45;96083.53;;;16.78;72.39
55271;BME280;41132;47.162;9.470;2023-05-12T12:09:11;96066.59;;;16.73;68.63
55271;BME280;41132;47.162;9.470;2023-05-12T12:11:37;96077.63;;;16.63;67.44
55271;BME280;41132;47.162;9.470;2023-05-12T12:14:02;96068.44;;;16.59;68.13
55271;BME280;41132;47.162;9.470;2023-05-12T12:16:29;96073.94;;;16.64;66.05
55271;BME280;41132;47.162;9.470;2023-05-12T12:18:55;96056.81;;;16.53;65.48
55271;BME280;41132;47.162;9.470;2023-05-12T12:21:25;96069.06;;;16.61;67.35
55271;BME280;41132;47.162;9.470;2023-05-12T12:23:51;96035.63;;;16.46;67.81
55271;BME280;41132;47.162;9.470;2023-05-12T12:26:17;96063.31;;;16.44;66.66
55271;BME280;41132;47.162;9.470;2023-05-12T12:28:48;96037.03;;;16.09;69.54
55271;BME280;41132;47.162;9.470;2023-05-12T12:31:14;96055.75;;;16.07;72.11
55271;BME280;41132;47.162;9.470;2023-05-12T12:33:39;96039.25;;;16.05;69.75
55271;BME280;41132;47.162;9.470;2023-05-12T12:36:05;96058.78;;;16.04;72.28
55271;BME280;41132;47.162;9.470;2023-05-12T12:38:30;96064.06;;;15.98;71.35
55271;BME280;41132;47.162;9.470;2023-05-12T12:40:56;96063.69;;;15.94;68.78
55271;BME280;41132;47.162;9.470;2023-05-12T12:43:21;96045.66;;;15.70;66.30
55271;BME280;41132;47.162;9.470;2023-05-12T12:45:47;96058.25;;;15.68;64.57
55271;BME280;41132;47.162;9.470;2023-05-12T12:48:13;96052.63;;;15.77;67.92
55271;BME280;41132;47.162;9.470;2023-05-12T12:50:38;96078.72;;;15.94;67.60
55271;BME280;41132;47.162;9.470;2023-05-12T12:53:04;96064.22;;;15.76;72.48